Time;durP1;ratioP1;P1;durP2;ratioP2;P2;SDS_P1;SDS_P2;PMS_P1;PMS_P2;Temp;Humidity;BMP_temperature;BMP_pressure;BME280_temperature;BME280_humidity;BME280_pressure;Samples;Min_cycle;Max_cycle;Signal;HPM_P1;HPM_P2
2022/06/30 04:01:47;;;;;;;36.43;25.97;;;17.90;96.30;;;;;;5351950;22;20540;-78
2022/06/30 04:04:15;;;;;;;36.57;25.60;;;17.90;96.30;;;;;;4992581;28;20456;-75
2022/06/30 04:06:41;;;;;;;35.53;25.90;;;17.90;96.30;;;;;;4992495;28;20183;-75
2022/06/30 04:09:07;;;;;;;36.07;23.40;;;18.00;96.30;;;;;;4991919;28;20435;-75
2022/06/30 04:11:32;;;;;;;32.20;24.90;;;17.90;96.30;;;;;;4968172;28;20493;-72
2022/06/30 04:13:58;;;;;;;25.70;21.77;;;18.00;96.30;;;;;;4961782;28;20177;-73
2022/06/30 04:16:23;;;;;;;29.23;23.63;;;18.00;96.30;;;;;;4936623;29;20181;-73
2022/06/30 04:18:49;;;;;;;34.30;23.50;;;18.00;96.30;;;;;;4978852;28;20261;-73
2022/06/30 04:21:16;;;;;;;33.00;23.50;;;18.00;96.30;;;;;;4955620;28;20201;-73
2022/06/30 04:23:42;;;;;;;28.73;23.60;;;18.00;96.30;;;;;;4972976;28;20249;-74
2022/06/30 04:26:08;;;;;;;31.77;22.23;;;18.00;96.30;;;;;;4972205;28;20414;-73
2022/06/30 04:28:34;;;;;;;28.50;22.77;;;18.00;96.30;;;;;;4972411;28;20413;-73
2022/06/30 04:33:43;;;;;;;35.87;25.73;;;18.10;96.30;;;;;;4979411;28;20220;-74
2022/06/30 04:36:08;;;;;;;36.47;26.40;;;18.10;96.30;;;;;;4979020;28;20793;-75
2022/06/30 04:38:34;;;;;;;29.93;25.40;;;18.10;96.30;;;;;;4971821;28;20174;-77
2022/06/30 04:43:44;;;;;;;29.97;24.60;;;18.20;96.30;;;;;;4976603;28;20186;-75
2022/06/30 04:46:09;;;;;;;35.83;24.63;;;18.30;96.30;;;;;;4976775;28;20417;-77
2022/06/30 04:48:34;;;;;;;32.57;25.03;;;18.30;96.30;;;;;;4977515;28;20190;-77
2022/06/30 04:51:00;;;;;;;30.63;24.03;;;18.50;96.30;;;;;;4977017;28;20203;-76
2022/06/30 04:53:26;;;;;;;31.60;23.20;;;18.60;96.30;;;;;;4965995;28;20674;-76
2022/06/30 04:55:51;;;;;;;27.37;23.50;;;18.60;96.30;;;;;;4975153;28;20174;-76
2022/06/30 04:58:17;;;;;;;31.90;22.20;;;18.70;96.30;;;;;;4995067;28;20577;-76
2022/06/30 05:00:42;;;;;;;27.50;20.00;;;18.70;96.30;;;;;;4982714;28;20693;-76
2022/06/30 05:03:08;;;;;;;29.20;21.70;;;18.80;96.30;;;;;;4976215;28;20601;-76
2022/06/30 05:05:33;;;;;;;26.93;21.90;;;18.80;96.30;;;;;;4976473;28;20174;-75
2022/06/30 05:07:59;;;;;;;24.87;21.30;;;18.80;96.30;;;;;;4975895;28;20825;-77
2022/06/30 05:10:24;;;;;;;31.47;22.90;;;18.80;96.30;;;;;;4976317;28;20681;-77
2022/06/30 05:12:50;;;;;;;34.30;24.10;;;18.80;96.30;;;;;;4976749;28;20179;-78
2022/06/30 05:15:15;;;;;;;26.77;21.90;;;18.80;96.30;;;;;;4976675;28;20174;-75
2022/06/30 05:17:41;;;;;;;30.50;22.57;;;18.80;96.30;;;;;;4975707;28;20209;-76
2022/06/30 05:20:07;;;;;;;29.80;21.30;;;18.90;96.30;;;;;;4976028;28;20186;-78
2022/06/30 05:22:32;;;;;;;23.60;20.50;;;19.10;96.30;;;;;;4975726;28;20319;-77
2022/06/30 05:27:46;;;;;;;29.70;21.70;;;19.20;96.30;;;;;;4975850;28;20268;-77
2022/06/30 05:30:12;;;;;;;30.30;22.87;;;19.20;96.30;;;;;;4975779;28;20544;-77
2022/06/30 05:32:38;;;;;;;28.13;23.90;;;19.20;96.30;;;;;;4975597;28;20410;-75
2022/06/30 05:35:05;;;;;;;29.60;22.50;;;19.20;96.30;;;;;;4958529;28;20440;-75
2022/06/30 05:37:30;;;;;;;28.20;22.70;;;19.20;96.30;;;;;;4975409;28;20169;-77
2022/06/30 05:39:57;;;;;;;32.00;24.90;;;19.30;96.30;;;;;;4975490;28;20418;-77
2022/06/30 05:42:22;;;;;;;30.27;22.97;;;19.30;96.30;;;;;;4958112;28;20237;-77
2022/06/30 05:44:48;;;;;;;39.13;24.97;;;19.40;96.30;;;;;;4975266;28;20418;-76
2022/06/30 05:47:13;;;;;;;33.53;22.40;;;19.60;96.30;;;;;;4975279;28;20178;-77
2022/06/30 05:49:39;;;;;;;37.27;22.57;;;19.70;96.30;;;;;;4974711;28;20264;-77
2022/06/30 05:52:04;;;;;;;30.93;23.63;;;19.80;96.30;;;;;;4975186;28;20276;-77
2022/06/30 05:54:30;;;;;;;26.17;21.23;;;19.90;96.30;;;;;;4975337;28;20237;-77
2022/06/30 05:56:56;;;;;;;26.00;22.17;;;20.20;96.30;;;;;;4975436;28;20176;-77
2022/06/30 05:59:21;;;;;;;24.10;20.73;;;20.50;96.30;;;;;;4957774;28;20274;-77
2022/06/30 06:01:47;;;;;;;24.40;20.60;;;20.70;96.30;;;;;;4975044;28;20246;-77
2022/06/30 06:04:12;;;;;;;23.50;18.57;;;21.10;96.30;;;;;;4975169;28;20661;-78
2022/06/30 06:06:38;;;;;;;22.23;18.47;;;21.60;96.30;;;;;;4957670;28;20166;-77
2022/06/30 06:09:04;;;;;;;26.93;19.20;;;22.20;96.30;;;;;;4974826;28;20225;-77
2022/06/30 06:11:32;;;;;;;22.67;17.70;;;23.00;96.30;;;;;;4975012;28;20272;-77
2022/06/30 06:13:57;;;;;;;18.47;16.47;;;23.80;96.30;;;;;;4957828;28;20265;-77
2022/06/30 06:16:23;;;;;;;24.63;17.17;;;25.10;96.30;;;;;;4974604;28;20984;-77
2022/06/30 06:18:48;;;;;;;19.10;17.10;;;25.40;96.30;;;;;;4974269;28;20187;-77
2022/06/30 06:21:14;;;;;;;18.70;16.80;;;24.20;96.30;;;;;;4974582;28;20205;-77
2022/06/30 06:23:39;;;;;;;19.50;14.57;;;24.10;96.30;;;;;;4957484;28;20543;-77
2022/06/30 06:26:05;;;;;;;17.60;15.73;;;24.30;96.30;;;;;;4974640;28;20178;-77
2022/06/30 06:31:14;;;;;;;18.23;16.40;;;25.20;96.30;;;;;;4974331;28;20643;-78
2022/06/30 06:33:40;;;;;;;16.23;14.70;;;26.00;96.30;;;;;;4974692;28;20500;-78
2022/06/30 06:36:06;;;;;;;15.30;13.80;;;26.80;96.30;;;;;;4974649;28;20193;-78
2022/06/30 06:38:31;;;;;;;16.00;13.40;;;26.70;96.30;;;;;;4974195;28;20170;-78
2022/06/30 06:40:57;;;;;;;14.73;13.23;;;26.60;96.30;;;;;;4989770;28;20220;-78
2022/06/30 06:43:22;;;;;;;15.63;13.90;;;27.40;96.30;;;;;;4977494;28;20192;-76
2022/06/30 06:45:48;;;;;;;14.47;13.00;;;28.10;96.30;;;;;;4974259;28;20653;-76
2022/06/30 06:48:13;;;;;;;16.50;12.73;;;28.00;96.30;;;;;;4974205;28;20174;-76
2022/06/30 06:50:39;;;;;;;15.23;13.63;;;28.40;96.30;;;;;;4973681;28;20225;-76
2022/06/30 06:53:04;;;;;;;15.30;12.90;;;28.30;96.30;;;;;;4974234;28;20209;-76
2022/06/30 06:55:30;;;;;;;14.10;12.77;;;28.00;96.30;;;;;;4974262;28;20197;-76
2022/06/30 06:57:56;;;;;;;12.77;11.53;;;27.40;96.30;;;;;;4973899;28;20204;-76
2022/06/30 07:00:21;;;;;;;12.83;11.63;;;27.60;96.30;;;;;;4973827;28;20174;-77
2022/06/30 07:02:47;;;;;;;14.87;11.20;;;27.90;96.30;;;;;;4956354;28;20185;-76
2022/06/30 07:05:13;;;;;;;18.63;12.60;;;28.40;96.30;;;;;;4973705;28;20213;-76
2022/06/30 07:07:38;;;;;;;14.27;12.90;;;28.90;96.30;;;;;;4973780;28;20186;-76
2022/06/30 07:10:08;;;;;;;15.27;12.97;;;28.70;96.30;;;;;;4974039;28;20202;-78
2022/06/30 07:12:34;;;;;;;12.33;11.20;;;30.30;93.70;;;;;;4973905;28;20284;-77
2022/06/30 07:15:00;;;;;;;16.63;12.53;;;30.20;94.70;;;;;;4974092;28;20416;-76
2022/06/30 07:17:25;;;;;;;16.80;12.20;;;31.80;89.40;;;;;;4973880;28;20413;-79
2022/06/30 07:19:51;;;;;;;13.63;12.50;;;30.90;92.10;;;;;;4974242;28;20277;-76
2022/06/30 07:22:19;;;;;;;16.33;12.60;;;30.80;92.80;;;;;;4956644;28;20692;-77
2022/06/30 07:24:44;;;;;;;13.53;11.40;;;30.80;92.60;;;;;;4974199;28;20186;-76
2022/06/30 07:27:10;;;;;;;13.30;12.20;;;30.20;94.70;;;;;;4973958;28;20181;-76
2022/06/30 07:29:36;;;;;;;16.67;12.13;;;29.90;94.30;;;;;;4972816;28;20173;-76
2022/06/30 07:32:02;;;;;;;16.83;11.30;;;29.40;95.30;;;;;;4973166;28;20202;-76
2022/06/30 07:34:27;;;;;;;8.73;7.83;;;29.70;94.70;;;;;;4973798;28;20177;-76
2022/06/30 07:36:53;;;;;;;8.93;8.03;;;30.30;94.50;;;;;;4956568;28;20185;-78
2022/06/30 07:39:18;;;;;;;12.77;8.17;;;31.00;92.30;;;;;;4956186;28;20185;-76
2022/06/30 07:41:44;;;;;;;15.43;8.10;;;31.20;90.40;;;;;;4973740;28;20215;-76
2022/06/30 07:44:09;;;;;;;10.03;7.90;;;31.20;89.50;;;;;;4956380;28;20696;-76
2022/06/30 07:46:35;;;;;;;12.27;7.80;;;31.50;91.70;;;;;;4973661;28;20236;-77
2022/06/30 07:49:01;;;;;;;9.43;8.50;;;31.70;91.50;;;;;;4973577;28;20190;-76
2022/06/30 07:51:27;;;;;;;10.50;9.50;;;32.00;90.50;;;;;;4973628;28;20264;-76
2022/06/30 07:53:52;;;;;;;12.87;9.23;;;32.00;89.20;;;;;;4973926;28;20618;-76
2022/06/30 07:56:18;;;;;;;13.53;8.33;;;31.40;91.00;;;;;;4956522;28;20669;-77
2022/06/30 07:58:44;;;;;;;10.60;9.33;;;31.20;92.00;;;;;;4973627;28;20256;-79
2022/06/30 08:01:10;;;;;;;9.80;8.90;;;30.70;91.20;;;;;;4973376;28;20491;-78
2022/06/30 08:03:36;;;;;;;13.60;8.30;;;30.20;92.10;;;;;;4974448;28;20169;-79
2022/06/30 08:06:01;;;;;;;10.40;8.40;;;29.50;96.30;;;;;;4973458;28;20177;-79
2022/06/30 08:08:27;;;;;;;13.43;9.37;;;30.20;94.60;;;;;;4972715;28;20169;-79
2022/06/30 08:10:53;;;;;;;9.43;8.53;;;30.40;93.80;;;;;;4975433;28;20209;-79
2022/06/30 08:13:19;;;;;;;9.33;8.27;;;30.60;92.40;;;;;;4947283;28;20189;-80
2022/06/30 08:15:44;;;;;;;10.30;9.30;;;30.40;94.10;;;;;;4965334;28;20433;-80
2022/06/30 08:18:10;;;;;;;16.37;7.93;;;30.40;95.80;;;;;;4960372;28;20223;-79
2022/06/30 08:20:36;;;;;;;9.70;8.83;;;31.00;95.40;;;;;;4975695;28;20240;-79
2022/06/30 08:23:01;;;;;;;8.40;7.70;;;31.30;93.50;;;;;;4977129;28;20177;-80
2022/06/30 08:25:27;;;;;;;10.60;8.07;;;31.30;89.30;;;;;;4977001;28;20570;-79
2022/06/30 08:27:52;;;;;;;8.60;7.80;;;30.90;91.00;;;;;;4976643;28;20173;-79
2022/06/30 08:30:18;;;;;;;8.47;7.50;;;31.30;91.30;;;;;;4977005;28;20836;-79
2022/06/30 08:32:44;;;;;;;9.07;6.93;;;31.60;91.30;;;;;;4959680;28;20258;-79
2022/06/30 08:35:10;;;;;;;9.60;8.60;;;32.10;89.20;;;;;;4977025;28;20174;-79
2022/06/30 08:37:36;;;;;;;11.27;9.90;;;32.50;88.70;;;;;;4976762;28;20480;-79
2022/06/30 08:42:47;;;;;;;10.10;8.63;;;31.30;89.50;;;;;;4991566;28;20247;-79
2022/06/30 08:45:13;;;;;;;8.80;7.93;;;30.60;90.80;;;;;;4996330;28;20499;-79
2022/06/30 08:47:39;;;;;;;8.37;7.67;;;30.70;92.10;;;;;;4996150;28;20515;-79
2022/06/30 08:50:08;;;;;;;10.50;8.50;;;31.00;90.50;;;;;;4979144;28;20288;-79
2022/06/30 08:52:43;;;;;;;23.10;9.40;;;30.80;89.10;;;;;;4978635;28;20444;-79
2022/06/30 08:55:10;;;;;;;10.60;8.83;;;31.00;93.00;;;;;;4996107;28;20396;-78
2022/06/30 08:57:36;;;;;;;12.60;7.50;;;31.50;91.50;;;;;;4995867;28;20404;-79
2022/06/30 09:00:02;;;;;;;10.00;9.00;;;31.90;89.00;;;;;;4995906;28;20423;-80
2022/06/30 09:02:27;;;;;;;11.13;8.73;;;32.00;88.30;;;;;;4978396;28;20224;-79
2022/06/30 09:04:53;;;;;;;11.13;9.27;;;31.50;87.20;;;;;;4996067;28;20412;-78
2022/06/30 09:07:18;;;;;;;8.50;7.60;;;31.20;89.50;;;;;;4995789;28;20582;-79
2022/06/30 09:09:44;;;;;;;12.33;9.43;;;30.70;88.00;;;;;;4986995;28;20177;-79
2022/06/30 09:12:15;;;;;;;10.23;8.87;;;29.90;90.50;;;;;;4976508;28;20252;-78
2022/06/30 09:14:41;;;;;;;9.63;7.77;;;30.30;91.00;;;;;;4958974;28;20650;-79
2022/06/30 09:17:08;;;;;;;9.63;8.17;;;30.90;92.40;;;;;;4976493;28;20421;-79
2022/06/30 09:19:40;;;;;;;9.93;7.83;;;31.70;91.40;;;;;;4976249;28;20401;-78
2022/06/30 09:22:14;;;;;;;9.73;8.30;;;31.80;87.80;;;;;;4976231;28;20515;-79
2022/06/30 09:24:40;;;;;;;9.57;8.60;;;31.70;91.60;;;;;;4975622;28;20409;-78
2022/06/30 09:27:19;;;;;;;8.07;7.33;;;31.90;86.50;;;;;;4976120;28;20444;-79
2022/06/30 09:29:54;;;;;;;8.83;7.63;;;31.10;86.10;;;;;;4973131;28;20421;-79
2022/06/30 09:32:20;;;;;;;12.57;8.07;;;30.80;94.40;;;;;;4976022;28;20431;-80
2022/06/30 09:34:51;;;;;;;8.47;7.60;;;31.60;88.60;;;;;;4975722;28;20496;-79
2022/06/30 09:37:22;;;;;;;7.73;6.63;;;32.70;86.10;;;;;;4975883;28;20177;-78
2022/06/30 09:39:49;;;;;;;9.33;7.40;;;32.10;82.60;;;;;;4975551;28;20409;-79
2022/06/30 09:42:34;;;;;;;9.83;8.83;;;31.60;89.40;;;;;;4975807;28;20435;-78
2022/06/30 09:44:59;;;;;;;10.20;8.00;;;32.00;89.50;;;;;;4976076;28;20405;-80
2022/06/30 09:47:25;;;;;;;9.00;8.07;;;31.70;88.10;;;;;;4958335;28;20913;-80
2022/06/30 09:49:52;;;;;;;12.97;8.83;;;31.00;89.10;;;;;;4975832;28;20340;-79
2022/06/30 09:52:23;;;;;;;15.70;9.10;;;30.00;90.80;;;;;;4975517;28;20569;-78
2022/06/30 09:54:56;;;;;;;11.30;8.33;;;29.40;92.30;;;;;;4975538;28;20416;-79
2022/06/30 09:57:24;;;;;;;9.40;8.30;;;29.10;96.00;;;;;;4975305;28;20421;-79
2022/06/30 10:00:09;;;;;;;10.30;8.03;;;28.80;95.20;;;;;;4975086;28;20476;-78
2022/06/30 10:02:39;;;;;;;8.90;8.00;;;28.90;96.30;;;;;;4975106;28;20461;-79
2022/06/30 10:05:07;;;;;;;9.20;7.60;;;29.30;92.60;;;;;;4975333;28;20425;-79
2022/06/30 10:07:34;;;;;;;9.67;7.30;;;29.90;91.50;;;;;;4975137;28;20901;-79
2022/06/30 10:10:08;;;;;;;8.00;7.00;;;30.30;88.60;;;;;;4975208;28;20463;-79
2022/06/30 10:12:35;;;;;;;8.60;7.60;;;29.80;90.00;;;;;;4957916;28;20557;-79
2022/06/30 10:15:00;;;;;;;7.47;6.77;;;30.40;92.60;;;;;;4957493;28;20413;-79
2022/06/30 10:17:36;;;;;;;12.67;7.37;;;31.10;88.60;;;;;;4974901;28;20940;-80
2022/06/30 10:20:04;;;;;;;7.63;7.00;;;31.60;86.50;;;;;;4957828;28;20185;-79
2022/06/30 10:22:30;;;;;;;14.03;6.60;;;31.80;87.30;;;;;;4974786;28;20429;-78
2022/06/30 10:24:57;;;;;;;8.77;6.90;;;31.00;87.60;;;;;;4974933;28;20484;-79
2022/06/30 10:27:25;;;;;;;12.13;6.87;;;31.00;83.50;;;;;;4974644;28;20417;-79
2022/06/30 10:29:58;;;;;;;14.97;6.77;;;30.50;85.50;;;;;;4974649;28;20523;-78
2022/06/30 10:32:32;;;;;;;8.67;5.57;;;30.60;85.70;;;;;;4974397;28;20441;-78
2022/06/30 10:35:26;;;;;;;12.17;6.70;;;30.30;86.50;;;;;;4969663;28;20508;-78
2022/06/30 10:37:57;;;;;;;6.97;5.70;;;30.70;85.60;;;;;;4962077;28;20407;-78
2022/06/30 10:40:43;;;;;;;8.83;5.63;;;31.30;88.00;;;;;;4965082;28;20430;-77
2022/06/30 10:43:09;;;;;;;6.30;5.57;;;31.30;87.90;;;;;;4965729;28;20421;-79
2022/06/30 10:45:35;;;;;;;6.87;5.43;;;30.10;86.20;;;;;;4955600;28;21192;-76
2022/06/30 10:48:06;;;;;;;7.47;6.10;;;29.90;86.30;;;;;;4976070;28;20178;-78
2022/06/30 10:50:37;;;;;;;9.20;6.80;;;28.60;90.60;;;;;;4957966;28;20453;-77
2022/06/30 10:53:05;;;;;;;10.50;5.50;;;28.30;91.70;;;;;;4971481;28;20428;-77
2022/06/30 10:55:43;;;;;;;10.97;5.93;;;28.30;93.00;;;;;;4973019;28;20425;-77
2022/06/30 10:58:10;;;;;;;8.93;6.63;;;28.20;95.30;;;;;;4974316;28;20409;-77
2022/06/30 11:00:46;;;;;;;9.13;5.50;;;28.10;94.70;;;;;;4965053;28;20442;-76
2022/06/30 11:03:32;;;;;;;11.43;6.70;;;28.00;94.60;;;;;;4955150;29;20414;-78
2022/06/30 11:05:59;;;;;;;7.23;5.80;;;28.00;95.40;;;;;;4955997;28;20476;-78
2022/06/30 11:08:50;;;;;;;9.43;5.90;;;28.00;95.30;;;;;;4942173;28;20504;-78
2022/06/30 11:11:41;;;;;;;19.13;6.90;;;27.40;96.30;;;;;;4982102;28;20468;-78
2022/06/30 11:14:07;;;;;;;15.97;8.33;;;26.40;96.30;;;;;;4974186;28;20492;-76
2022/06/30 11:16:34;;;;;;;25.40;7.77;;;26.00;96.30;;;;;;4990131;28;20462;-78
2022/06/30 11:19:01;;;;;;;19.93;8.20;;;25.60;96.30;;;;;;4993022;28;20188;-77
2022/06/30 11:21:31;;;;;;;11.20;7.77;;;25.20;96.30;;;;;;4993230;28;20978;-77
2022/06/30 11:24:02;;;;;;;14.00;8.30;;;24.80;96.30;;;;;;4992881;28;20444;-79
2022/06/30 11:29:16;;;;;;;18.67;8.53;;;24.60;96.30;;;;;;4984441;28;20456;-78
2022/06/30 11:31:42;;;;;;;12.30;8.77;;;24.50;96.30;;;;;;4973526;28;20491;-77
2022/06/30 11:34:17;;;;;;;15.87;9.27;;;24.60;96.30;;;;;;4973507;28;20432;-76
2022/06/30 11:36:44;;;;;;;25.43;9.50;;;24.40;96.30;;;;;;4947885;28;20777;-78
2022/06/30 11:39:14;;;;;;;20.13;9.47;;;24.60;96.30;;;;;;4945293;28;20444;-78
2022/06/30 11:42:06;;;;;;;21.27;10.07;;;24.50;96.30;;;;;;4971676;28;20512;-77
2022/06/30 11:44:38;;;;;;;15.50;8.57;;;24.10;96.30;;;;;;4973621;28;20475;-78
2022/06/30 11:47:06;;;;;;;10.73;7.93;;;23.10;96.30;;;;;;4955201;28;20440;-78
2022/06/30 11:49:44;;;;;;;18.47;8.07;;;22.80;96.30;;;;;;4972219;28;20987;-78
2022/06/30 11:52:37;;;;;;;11.17;7.97;;;22.80;96.30;;;;;;4963878;28;20520;-78
2022/06/30 11:55:14;;;;;;;10.57;7.97;;;23.20;96.30;;;;;;4957826;28;20426;-77
2022/06/30 11:57:42;;;;;;;12.57;8.20;;;23.50;96.30;;;;;;4954851;28;20418;-76
2022/06/30 12:00:14;;;;;;;11.20;6.40;;;23.40;96.30;;;;;;4962902;28;20461;-77
2022/06/30 12:02:41;;;;;;;9.33;6.40;;;23.40;96.30;;;;;;4962020;28;21035;-78
2022/06/30 12:05:16;;;;;;;14.87;7.43;;;23.40;96.30;;;;;;4953631;28;20425;-79
2022/06/30 12:07:43;;;;;;;13.63;6.87;;;23.60;96.30;;;;;;4977822;28;20914;-78
2022/06/30 12:10:11;;;;;;;11.10;7.40;;;23.80;96.30;;;;;;4985844;28;20522;-79
2022/06/30 12:12:37;;;;;;;9.63;6.87;;;24.00;96.30;;;;;;4992745;28;20428;-78
2022/06/30 12:15:15;;;;;;;9.00;6.83;;;24.10;96.30;;;;;;4992651;28;20443;-78
2022/06/30 12:17:46;;;;;;;9.77;6.30;;;24.30;96.30;;;;;;4992512;28;20202;-78
2022/06/30 12:20:14;;;;;;;7.77;5.73;;;24.50;96.30;;;;;;4992043;28;20479;-79
2022/06/30 12:22:49;;;;;;;7.20;6.50;;;24.80;96.30;;;;;;4973233;28;20433;-77
2022/06/30 12:25:15;;;;;;;10.37;7.00;;;25.50;96.30;;;;;;4973374;28;20884;-78
2022/06/30 12:27:43;;;;;;;14.70;6.60;;;26.70;96.30;;;;;;4973047;28;20428;-78
2022/06/30 12:30:29;;;;;;;8.87;6.23;;;28.00;96.30;;;;;;4956113;28;20448;-78
2022/06/30 12:33:00;;;;;;;12.63;6.33;;;28.50;96.30;;;;;;4973470;28;20420;-78
2022/06/30 12:35:30;;;;;;;9.17;7.33;;;28.20;96.30;;;;;;4955818;28;20421;-79
2022/06/30 12:37:56;;;;;;;15.57;8.10;;;27.50;96.30;;;;;;4972924;28;20418;-78
2022/06/30 12:40:26;;;;;;;13.10;8.17;;;27.30;96.30;;;;;;4973223;28;20420;-77
2022/06/30 12:42:53;;;;;;;15.83;8.20;;;26.80;96.30;;;;;;4973244;28;20476;-78
2022/06/30 12:45:43;;;;;;;13.90;8.40;;;26.30;96.30;;;;;;4948802;28;20431;-78
2022/06/30 12:48:09;;;;;;;7.30;5.70;;;26.10;96.30;;;;;;4962385;28;20421;-78
2022/06/30 12:50:37;;;;;;;9.67;7.03;;;25.80;96.30;;;;;;4961344;28;20682;-78
2022/06/30 12:53:18;;;;;;;6.60;6.00;;;25.80;96.30;;;;;;4967904;28;20913;-78
2022/06/30 12:56:03;;;;;;;8.80;7.90;;;26.10;96.30;;;;;;4967110;28;20426;-79
2022/06/30 12:59:01;;;;;;;13.37;8.10;;;26.20;96.30;;;;;;4961259;28;20437;-77
2022/06/30 13:01:36;;;;;;;9.77;8.73;;;26.30;96.30;;;;;;4932376;28;20458;-77
2022/06/30 13:04:02;;;;;;;13.13;8.93;;;26.70;96.30;;;;;;4961867;28;20774;-77
2022/06/30 13:06:30;;;;;;;8.60;7.40;;;27.00;96.30;;;;;;4974177;28;20420;-77
2022/06/30 13:08:56;;;;;;;14.23;7.97;;;27.30;96.30;;;;;;4978131;28;20177;-77
2022/06/30 13:11:24;;;;;;;9.60;8.37;;;27.60;96.30;;;;;;4995845;28;20558;-77
2022/06/30 13:13:51;;;;;;;32.37;8.67;;;27.80;96.30;;;;;;4995875;28;20400;-77
2022/06/30 13:16:17;;;;;;;10.43;7.80;;;28.10;96.30;;;;;;4995581;28;20460;-77
2022/06/30 13:18:43;;;;;;;12.60;9.57;;;28.50;96.30;;;;;;4995320;28;20416;-78
2022/06/30 13:21:09;;;;;;;11.60;8.10;;;29.40;96.30;;;;;;4995469;28;20444;-78
2022/06/30 13:23:35;;;;;;;11.87;9.60;;;29.80;96.30;;;;;;4978074;28;20831;-78
2022/06/30 13:26:01;;;;;;;13.40;10.37;;;30.00;96.10;;;;;;4977196;28;20456;-78
2022/06/30 13:28:27;;;;;;;10.90;9.20;;;30.00;96.30;;;;;;4975935;28;20444;-78
2022/06/30 13:30:53;;;;;;;16.23;8.53;;;30.10;96.30;;;;;;4976121;28;20631;-78
2022/06/30 13:33:18;;;;;;;14.43;8.87;;;29.40;96.30;;;;;;4975789;28;20173;-77
2022/06/30 13:35:43;;;;;;;13.63;11.73;;;28.60;96.30;;;;;;4976098;28;20225;-78
2022/06/30 13:38:09;;;;;;;18.50;11.70;;;27.90;96.30;;;;;;4975686;28;20586;-77
2022/06/30 13:40:36;;;;;;;22.73;12.80;;;27.00;96.30;;;;;;4988414;28;20263;-77
2022/06/30 13:43:03;;;;;;;13.97;12.50;;;26.50;96.30;;;;;;4976861;28;20650;-77
2022/06/30 13:45:28;;;;;;;13.70;11.63;;;26.20;96.30;;;;;;4956848;29;20422;-77
2022/06/30 13:47:54;;;;;;;19.60;13.10;;;26.00;96.30;;;;;;4955933;29;20410;-77
2022/06/30 13:50:19;;;;;;;18.53;12.83;;;25.80;96.30;;;;;;4956165;29;20199;-77
2022/06/30 13:52:45;;;;;;;15.07;12.60;;;25.80;96.30;;;;;;4956500;29;20257;-78
2022/06/30 13:55:10;;;;;;;22.67;12.70;;;25.80;96.30;;;;;;4956300;29;20595;-78
2022/06/30 13:57:36;;;;;;;15.10;11.97;;;25.70;96.30;;;;;;4956117;29;20167;-77
2022/06/30 14:00:06;;;;;;;15.20;12.10;;;25.60;96.30;;;;;;4994009;28;20188;-78
2022/06/30 14:02:31;;;;;;;14.73;13.00;;;25.70;96.30;;;;;;4994716;28;20205;-78
2022/06/30 14:04:59;;;;;;;18.20;12.80;;;25.70;96.30;;;;;;4994929;28;20431;-77
2022/06/30 14:07:25;;;;;;;16.60;13.30;;;25.60;96.30;;;;;;4993063;28;20174;-78
2022/06/30 14:09:52;;;;;;;15.27;13.03;;;25.30;96.30;;;;;;4974817;28;20453;-77
2022/06/30 14:12:18;;;;;;;15.53;13.80;;;25.20;96.30;;;;;;4974964;28;20434;-77
2022/06/30 14:14:43;;;;;;;19.00;14.30;;;25.10;96.30;;;;;;4975172;28;20413;-77
2022/06/30 14:17:09;;;;;;;15.63;13.50;;;24.90;96.30;;;;;;4975056;28;20177;-77
2022/06/30 14:19:34;;;;;;;18.50;13.80;;;24.90;96.30;;;;;;4974776;28;20178;-77
2022/06/30 14:22:00;;;;;;;14.37;12.83;;;24.90;96.30;;;;;;4974772;28;20198;-78
2022/06/30 14:24:26;;;;;;;13.13;11.93;;;24.90;96.30;;;;;;4974997;28;20201;-77
2022/06/30 14:26:52;;;;;;;15.57;12.70;;;24.90;96.30;;;;;;4970138;28;20199;-76
2022/06/30 14:29:18;;;;;;;14.63;13.13;;;25.00;96.30;;;;;;4972841;28;20968;-78
2022/06/30 14:31:43;;;;;;;14.90;12.90;;;25.00;96.30;;;;;;4959835;28;20234;-76
2022/06/30 14:34:10;;;;;;;19.10;11.73;;;24.90;96.30;;;;;;4938950;28;20269;-77
2022/06/30 14:36:36;;;;;;;16.47;12.17;;;24.90;96.30;;;;;;4974642;28;20192;-78
2022/06/30 14:39:02;;;;;;;23.70;13.00;;;25.10;96.30;;;;;;4974568;28;20822;-77
2022/06/30 14:44:11;;;;;;;15.07;12.23;;;25.10;96.30;;;;;;4963603;28;20224;-77
2022/06/30 14:46:37;;;;;;;13.23;11.83;;;25.10;96.30;;;;;;4966009;28;20418;-78
2022/06/30 14:49:04;;;;;;;17.83;11.30;;;25.00;96.30;;;;;;4955494;29;20187;-78
2022/06/30 14:51:30;;;;;;;18.20;11.83;;;25.00;96.30;;;;;;4975212;28;20211;-78
2022/06/30 14:53:55;;;;;;;16.50;13.30;;;25.00;96.30;;;;;;4974805;28;20421;-78
2022/06/30 14:56:21;;;;;;;40.00;12.40;;;25.00;96.30;;;;;;4973974;28;21001;-78
2022/06/30 14:58:46;;;;;;;20.60;13.57;;;25.00;96.30;;;;;;4973857;28;20162;-78
2022/06/30 15:01:12;;;;;;;13.53;12.10;;;25.00;96.30;;;;;;4974186;28;20213;-78
2022/06/30 15:03:37;;;;;;;14.43;12.50;;;25.00;96.30;;;;;;4973065;28;20174;-78
2022/06/30 15:06:05;;;;;;;14.33;11.07;;;24.90;96.30;;;;;;4973249;28;20182;-78
2022/06/30 15:08:30;;;;;;;11.30;10.20;;;25.00;96.30;;;;;;4970098;28;20193;-77
2022/06/30 15:10:56;;;;;;;12.83;11.20;;;25.30;96.30;;;;;;4976513;28;20469;-77
2022/06/30 15:13:22;;;;;;;24.90;13.20;;;25.70;96.30;;;;;;4973071;28;20181;-78
2022/06/30 15:15:48;;;;;;;15.53;10.33;;;26.30;96.30;;;;;;4972774;28;20201;-78
2022/06/30 15:18:13;;;;;;;13.23;9.80;;;26.90;96.30;;;;;;4972356;28;20177;-77
2022/06/30 15:20:39;;;;;;;12.10;7.87;;;26.80;96.30;;;;;;4972668;28;20449;-77
2022/06/30 15:25:53;;;;;;;10.90;8.70;;;27.00;96.30;;;;;;4972819;28;20428;-78
2022/06/30 15:28:18;;;;;;;13.27;8.50;;;27.60;96.30;;;;;;4973352;28;20437;-77
2022/06/30 15:30:44;;;;;;;12.73;8.37;;;27.90;96.30;;;;;;4973560;28;20586;-77
2022/06/30 15:33:09;;;;;;;10.60;8.23;;;28.00;96.30;;;;;;4973572;28;20178;-77
2022/06/30 15:35:35;;;;;;;9.83;7.77;;;28.10;96.30;;;;;;4973726;28;20178;-77
2022/06/30 15:38:01;;;;;;;10.90;7.40;;;28.40;96.30;;;;;;4973331;28;20701;-77
2022/06/30 15:40:27;;;;;;;8.73;7.43;;;28.50;96.30;;;;;;4984766;28;20191;-77
2022/06/30 15:42:53;;;;;;;8.80;7.70;;;28.40;96.30;;;;;;4993068;28;20166;-77
2022/06/30 15:45:24;;;;;;;17.87;8.23;;;28.60;96.30;;;;;;4992854;28;20412;-78
2022/06/30 15:47:50;;;;;;;9.20;7.93;;;28.40;96.30;;;;;;4992664;28;20231;-77
2022/06/30 15:50:16;;;;;;;12.17;8.30;;;28.10;96.30;;;;;;4992848;28;20948;-78
2022/06/30 15:52:41;;;;;;;8.40;7.50;;;27.90;96.30;;;;;;4992880;28;20436;-77
2022/06/30 15:55:07;;;;;;;10.33;7.73;;;27.80;96.30;;;;;;4992872;28;20173;-77
2022/06/30 15:57:34;;;;;;;9.33;6.53;;;27.70;96.30;;;;;;4992567;28;20201;-77
2022/06/30 16:00:00;;;;;;;7.77;6.73;;;27.70;96.30;;;;;;4992474;28;20419;-77
2022/06/30 16:02:26;;;;;;;8.90;6.80;;;27.50;96.30;;;;;;4992430;28;20783;-78
2022/06/30 16:04:51;;;;;;;8.27;7.13;;;27.60;96.30;;;;;;4992805;28;20421;-77
2022/06/30 16:07:18;;;;;;;7.57;6.77;;;27.70;96.30;;;;;;4994327;28;20177;-79
2022/06/30 16:09:43;;;;;;;11.00;7.77;;;28.10;96.30;;;;;;4985135;28;20189;-78
2022/06/30 16:12:09;;;;;;;10.00;7.80;;;27.90;96.30;;;;;;4973198;28;20845;-77
2022/06/30 16:14:35;;;;;;;10.03;7.50;;;28.10;96.30;;;;;;4973316;28;20272;-75
2022/06/30 16:17:00;;;;;;;9.77;6.80;;;28.00;96.30;;;;;;4973168;28;20520;-75
2022/06/30 16:19:26;;;;;;;7.87;7.00;;;28.00;96.30;;;;;;4955710;28;20232;-75
2022/06/30 16:21:52;;;;;;;9.27;7.20;;;28.10;96.30;;;;;;4973149;28;20204;-78
2022/06/30 16:24:17;;;;;;;8.50;6.27;;;28.30;96.30;;;;;;4973816;28;20178;-75
2022/06/30 16:26:44;;;;;;;17.00;6.97;;;28.20;96.30;;;;;;4955731;28;20175;-77
2022/06/30 16:29:09;;;;;;;8.80;6.70;;;27.90;96.30;;;;;;4972677;28;20174;-77
2022/06/30 16:31:35;;;;;;;22.30;7.07;;;27.90;96.30;;;;;;4972996;28;20531;-77
2022/06/30 16:34:00;;;;;;;12.23;7.10;;;27.70;96.30;;;;;;4973045;28;20708;-77
2022/06/30 16:36:26;;;;;;;7.50;6.80;;;27.60;96.30;;;;;;4976856;28;20638;-78
2022/06/30 16:38:51;;;;;;;11.07;7.20;;;27.60;96.30;;;;;;4977035;28;20169;-78
2022/06/30 16:41:17;;;;;;;8.30;7.07;;;27.10;96.30;;;;;;4976469;28;20225;-76
2022/06/30 16:43:43;;;;;;;10.90;7.60;;;27.00;96.30;;;;;;4976630;28;20177;-78
2022/06/30 16:46:10;;;;;;;8.10;7.07;;;27.10;96.30;;;;;;4976752;28;20186;-78
2022/06/30 16:48:38;;;;;;;10.50;7.73;;;27.00;96.30;;;;;;4985279;28;20412;-78
2022/06/30 16:51:03;;;;;;;11.43;7.20;;;26.90;96.30;;;;;;4966702;28;20464;-79
2022/06/30 16:53:29;;;;;;;9.17;7.00;;;26.90;96.30;;;;;;4976445;28;20420;-78
2022/06/30 16:55:55;;;;;;;11.67;8.53;;;26.90;96.30;;;;;;4977224;28;20193;-78
2022/06/30 16:58:21;;;;;;;8.37;7.57;;;26.80;96.30;;;;;;4976196;28;20176;-79
2022/06/30 17:00:47;;;;;;;8.90;8.00;;;26.70;96.30;;;;;;4977402;28;20543;-78